sensor_id;sensor_type;location;lat;lon;timestamp;temperature;humidity
30280;DHT22;17097;50.916;5.344;2023-03-13T00:00:53;12.30;99.90
30280;DHT22;17097;50.916;5.344;2023-03-13T00:03:19;12.40;99.90
30280;DHT22;17097;50.916;5.344;2023-03-13T00:05:45;12.30;99.90
30280;DHT22;17097;50.916;5.344;2023-03-13T00:08:14;12.30;99.90
30280;DHT22;17097;50.916;5.344;2023-03-13T00:10:41;12.20;99.90
30280;DHT22;17097;50.916;5.344;2023-03-13T00:13:08;12.30;99.90
30280;DHT22;17097;50.916;5.344;2023-03-13T00:15:35;12.20;99.90
30280;DHT22;17097;50.916;5.344;2023-03-13T00:18:00;12.30;99.90
30280;DHT22;17097;50.916;5.344;2023-03-13T00:20:26;12.30;99.90
30280;DHT22;17097;50.916;5.344;2023-03-13T00:22:52;12.20;99.90
30280;DHT22;17097;50.916;5.344;2023-03-13T00:25:18;12.20;99.90
30280;DHT22;17097;50.916;5.344;2023-03-13T00:27:44;12.10;99.90
30280;DHT22;17097;50.916;5.344;2023-03-13T00:30:10;12.00;99.90
30280;DHT22;17097;50.916;5.344;2023-03-13T00:32:43;11.90;99.90
30280;DHT22;17097;50.916;5.344;2023-03-13T00:35:11;11.90;99.90
30280;DHT22;17097;50.916;5.344;2023-03-13T00:37:39;11.70;99.90
30280;DHT22;17097;50.916;5.344;2023-03-13T00:40:05;11.60;99.90
30280;DHT22;17097;50.916;5.344;2023-03-13T00:42:31;11.60;99.90
30280;DHT22;17097;50.916;5.344;2023-03-13T00:45:00;11.60;99.90
30280;DHT22;17097;50.916;5.344;2023-03-13T00:47:26;11.70;99.90
30280;DHT22;17097;50.916;5.344;2023-03-13T00:49:54;11.70;99.90
30280;DHT22;17097;50.916;5.344;2023-03-13T00:52:20;11.70;99.90
30280;DHT22;17097;50.916;5.344;2023-03-13T00:54:46;11.70;99.90
30280;DHT22;17097;50.916;5.344;2023-03-13T00:57:11;11.70;99.90
30280;DHT22;17097;50.916;5.344;2023-03-13T00:59:38;11.60;99.90
30280;DHT22;17097;50.916;5.344;2023-03-13T01:02:05;11.70;99.90
30280;DHT22;17097;50.916;5.344;2023-03-13T01:04:31;11.60;99.90
30280;DHT22;17097;50.916;5.344;2023-03-13T01:06:57;11.80;99.90
30280;DHT22;17097;50.916;5.344;2023-03-13T01:09:23;11.80;99.90
30280;DHT22;17097;50.916;5.344;2023-03-13T01:11:51;11.70;99.90
30280;DHT22;17097;50.916;5.344;2023-03-13T01:14:18;11.70;99.90
30280;DHT22;17097;50.916;5.344;2023-03-13T01:16:47;11.70;99.90
30280;DHT22;17097;50.916;5.344;2023-03-13T01:19:14;11.60;99.90
30280;DHT22;17097;50.916;5.344;2023-03-13T01:21:44;11.60;99.90
30280;DHT22;17097;50.916;5.344;2023-03-13T01:24:10;11.70;99.90
30280;DHT22;17097;50.916;5.344;2023-03-13T01:26:37;11.70;99.90
30280;DHT22;17097;50.916;5.344;2023-03-13T01:29:03;11.70;99.90
30280;DHT22;17097;50.916;5.344;2023-03-13T01:31:32;11.70;99.90
30280;DHT22;17097;50.916;5.344;2023-03-13T01:34:01;11.70;99.90
30280;DHT22;17097;50.916;5.344;2023-03-13T01:36:28;11.70;99.90
30280;DHT22;17097;50.916;5.344;2023-03-13T01:38:56;11.70;99.90
30280;DHT22;17097;50.916;5.344;2023-03-13T01:41:26;11.80;99.90
30280;DHT22;17097;50.916;5.344;2023-03-13T01:43:52;11.80;99.90
30280;DHT22;17097;50.916;5.344;2023-03-13T01:46:27;11.80;99.90
30280;DHT22;17097;50.916;5.344;2023-03-13T01:49:10;11.80;99.90
30280;DHT22;17097;50.916;5.344;2023-03-13T01:51:43;11.90;99.90
30280;DHT22;17097;50.916;5.344;2023-03-13T01:54:17;11.90;99.90
30280;DHT22;17097;50.916;5.344;2023-03-13T01:57:05;11.80;99.90
30280;DHT22;17097;50.916;5.344;2023-03-13T02:00:03;11.90;99.90
30280;DHT22;17097;50.916;5.344;2023-03-13T02:02:33;11.80;99.90
30280;DHT22;17097;50.916;5.344;2023-03-13T02:05:00;11.90;99.90
30280;DHT22;17097;50.916;5.344;2023-03-13T02:07:39;11.90;99.90
30280;DHT22;17097;50.916;5.344;2023-03-13T02:10:07;12.00;99.90
30280;DHT22;17097;50.916;5.344;2023-03-13T02:12:36;12.00;99.90
30280;DHT22;17097;50.916;5.344;2023-03-13T02:15:12;12.00;99.90
30280;DHT22;17097;50.916;5.344;2023-03-13T02:17:39;12.00;99.90
30280;DHT22;17097;50.916;5.344;2023-03-13T02:20:08;12.10;99.90
30280;DHT22;17097;50.916;5.344;2023-03-13T02:22:39;12.10;99.90
30280;DHT22;17097;50.916;5.344;2023-03-13T02:25:33;12.10;99.90
30280;DHT22;17097;50.916;5.344;2023-03-13T02:28:03;12.00;99.90
30280;DHT22;17097;50.916;5.344;2023-03-13T02:30:30;12.00;99.90
30280;DHT22;17097;50.916;5.344;2023-03-13T02:32:56;12.10;99.90
30280;DHT22;17097;50.916;5.344;2023-03-13T02:35:24;12.20;99.90
30280;DHT22;17097;50.916;5.344;2023-03-13T02:37:56;12.30;99.90
30280;DHT22;17097;50.916;5.344;2023-03-13T02:40:27;12.10;99.90
30280;DHT22;17097;50.916;5.344;2023-03-13T02:42:55;12.30;99.90
30280;DHT22;17097;50.916;5.344;2023-03-13T02:45:21;12.30;99.90
30280;DHT22;17097;50.916;5.344;2023-03-13T02:47:50;12.30;99.90
30280;DHT22;17097;50.916;5.344;2023-03-13T02:50:16;12.30;99.90
30280;DHT22;17097;50.916;5.344;2023-03-13T02:52:45;12.30;99.90
30280;DHT22;17097;50.916;5.344;2023-03-13T02:55:16;12.30;99.90
30280;DHT22;17097;50.916;5.344;2023-03-13T02:57:43;12.40;99.90
30280;DHT22;17097;50.916;5.344;2023-03-13T03:00:10;12.40;99.90
30280;DHT22;17097;50.916;5.344;2023-03-13T03:02:41;12.30;99.90
30280;DHT22;17097;50.916;5.344;2023-03-13T03:05:07;12.20;99.90
30280;DHT22;17097;50.916;5.344;2023-03-13T03:07:33;12.20;99.90
30280;DHT22;17097;50.916;5.344;2023-03-13T03:09:59;12.20;99.90
30280;DHT22;17097;50.916;5.344;2023-03-13T03:12:25;12.30;99.90
30280;DHT22;17097;50.916;5.344;2023-03-13T03:14:52;12.40;99.90
30280;DHT22;17097;50.916;5.344;2023-03-13T03:17:21;12.40;99.90
30280;DHT22;17097;50.916;5.344;2023-03-13T03:19:47;12.30;99.90
30280;DHT22;17097;50.916;5.344;2023-03-13T03:22:12;12.30;99.90
30280;DHT22;17097;50.916;5.344;2023-03-13T03:24:41;12.40;99.90
30280;DHT22;17097;50.916;5.344;2023-03-13T03:27:06;12.50;99.90
30280;DHT22;17097;50.916;5.344;2023-03-13T03:29:33;12.50;99.90
30280;DHT22;17097;50.916;5.344;2023-03-13T03:31:59;12.60;99.90
30280;DHT22;17097;50.916;5.344;2023-03-13T03:34:24;12.60;99.90
30280;DHT22;17097;50.916;5.344;2023-03-13T03:36:50;12.80;99.90
30280;DHT22;17097;50.916;5.344;2023-03-13T03:39:16;12.80;99.90
30280;DHT22;17097;50.916;5.344;2023-03-13T03:41:46;12.90;99.90
30280;DHT22;17097;50.916;5.344;2023-03-13T03:44:12;13.00;99.90
30280;DHT22;17097;50.916;5.344;2023-03-13T03:46:38;13.10;99.90
30280;DHT22;17097;50.916;5.344;2023-03-13T03:49:04;13.10;99.90
30280;DHT22;17097;50.916;5.344;2023-03-13T03:51:32;13.00;99.90
30280;DHT22;17097;50.916;5.344;2023-03-13T03:53:58;13.10;99.90
30280;DHT22;17097;50.916;5.344;2023-03-13T03:56:24;13.20;99.90
30280;DHT22;17097;50.916;5.344;2023-03-13T03:58:50;13.20;99.90
30280;DHT22;17097;50.916;5.344;2023-03-13T04:01:16;13.20;99.90
30280;DHT22;17097;50.916;5.344;2023-03-13T04:03:42;13.10;99.90
30280;DHT22;17097;50.916;5.344;2023-03-13T04:06:08;13.10;99.90
30280;DHT22;17097;50.916;5.344;2023-03-13T04:08:34;13.20;99.90
30280;DHT22;17097;50.916;5.344;2023-03-13T04:11:01;13.20;99.90
30280;DHT22;17097;50.916;5.344;2023-03-13T04:13:27;13.30;99.90
30280;DHT22;17097;50.916;5.344;2023-03-13T04:15:54;13.20;99.90
30280;DHT22;17097;50.916;5.344;2023-03-13T04:18:21;13.30;99.90
30280;DHT22;17097;50.916;5.344;2023-03-13T04:20:49;13.40;99.90
30280;DHT22;17097;50.916;5.344;2023-03-13T04:23:15;13.50;99.90
30280;DHT22;17097;50.916;5.344;2023-03-13T04:25:41;13.50;99.90
30280;DHT22;17097;50.916;5.344;2023-03-13T04:28:07;13.60;99.90
30280;DHT22;17097;50.916;5.344;2023-03-13T04:30:36;13.60;99.90
30280;DHT22;17097;50.916;5.344;2023-03-13T04:33:02;13.70;99.90
30280;DHT22;17097;50.916;5.344;2023-03-13T04:35:30;13.70;99.90
30280;DHT22;17097;50.916;5.344;2023-03-13T04:37:56;13.60;99.90
30280;DHT22;17097;50.916;5.344;2023-03-13T04:40:23;13.60;99.90
30280;DHT22;17097;50.916;5.344;2023-03-13T04:42:50;13.60;99.90
30280;DHT22;17097;50.916;5.344;2023-03-13T04:45:16;13.60;99.90
30280;DHT22;17097;50.916;5.344;2023-03-13T04:47:42;13.60;99.90
30280;DHT22;17097;50.916;5.344;2023-03-13T04:50:09;13.80;99.90
30280;DHT22;17097;50.916;5.344;2023-03-13T04:52:36;13.80;99.90
30280;DHT22;17097;50.916;5.344;2023-03-13T04:55:05;13.80;99.90
30280;DHT22;17097;50.916;5.344;2023-03-13T04:57:30;13.80;99.90
30280;DHT22;17097;50.916;5.344;2023-03-13T04:59:56;13.90;99.90
30280;DHT22;17097;50.916;5.344;2023-03-13T05:02:22;13.90;99.90
30280;DHT22;17097;50.916;5.344;2023-03-13T05:04:47;14.00;99.90
30280;DHT22;17097;50.916;5.344;2023-03-13T05:07:13;14.00;99.90
30280;DHT22;17097;50.916;5.344;2023-03-13T05:09:41;14.00;99.90
30280;DHT22;17097;50.916;5.344;2023-03-13T05:12:08;14.10;99.90
30280;DHT22;17097;50.916;5.344;2023-03-13T05:14:34;14.10;99.90
30280;DHT22;17097;50.916;5.344;2023-03-13T05:17:00;14.20;99.90
30280;DHT22;17097;50.916;5.344;2023-03-13T05:19:26;14.10;99.90
30280;DHT22;17097;50.916;5.344;2023-03-13T05:21:52;14.20;99.90
30280;DHT22;17097;50.916;5.344;2023-03-13T05:24:17;14.10;99.90
30280;DHT22;17097;50.916;5.344;2023-03-13T05:26:43;14.20;99.90
30280;DHT22;17097;50.916;5.344;2023-03-13T05:29:09;14.20;99.90
30280;DHT22;17097;50.916;5.344;2023-03-13T05:31:35;14.30;99.90
30280;DHT22;17097;50.916;5.344;2023-03-13T05:34:01;14.10;99.90
30280;DHT22;17097;50.916;5.344;2023-03-13T05:36:27;14.20;99.90
30280;DHT22;17097;50.916;5.344;2023-03-13T05:38:52;14.30;99.90
30280;DHT22;17097;50.916;5.344;2023-03-13T05:41:18;14.40;99.90
30280;DHT22;17097;50.916;5.344;2023-03-13T05:43:44;14.20;99.90
30280;DHT22;17097;50.916;5.344;2023-03-13T05:46:10;14.30;99.90
30280;DHT22;17097;50.916;5.344;2023-03-13T05:48:36;14.30;99.90
30280;DHT22;17097;50.916;5.344;2023-03-13T05:51:01;14.30;99.90
30280;DHT22;17097;50.916;5.344;2023-03-13T05:53:30;14.40;99.90
30280;DHT22;17097;50.916;5.344;2023-03-13T05:55:56;14.40;99.90
30280;DHT22;17097;50.916;5.344;2023-03-13T05:58:22;14.40;99.90
30280;DHT22;17097;50.916;5.344;2023-03-13T06:00:47;14.30;99.90
30280;DHT22;17097;50.916;5.344;2023-03-13T06:03:14;14.20;99.90
30280;DHT22;17097;50.916;5.344;2023-03-13T06:05:39;14.40;99.90
30280;DHT22;17097;50.916;5.344;2023-03-13T06:08:05;14.40;99.90
30280;DHT22;17097;50.916;5.344;2023-03-13T06:10:31;14.40;99.90
30280;DHT22;17097;50.916;5.344;2023-03-13T06:12:57;14.30;99.90
30280;DHT22;17097;50.916;5.344;2023-03-13T06:15:25;14.30;99.90
30280;DHT22;17097;50.916;5.344;2023-03-13T06:17:53;14.30;99.90
30280;DHT22;17097;50.916;5.344;2023-03-13T06:20:21;14.30;99.90
30280;DHT22;17097;50.916;5.344;2023-03-13T06:22:46;14.30;99.90
30280;DHT22;17097;50.916;5.344;2023-03-13T06:25:12;14.40;99.90
30280;DHT22;17097;50.916;5.344;2023-03-13T06:27:39;14.40;99.90
30280;DHT22;17097;50.916;5.344;2023-03-13T06:30:05;14.30;99.90
30280;DHT22;17097;50.916;5.344;2023-03-13T06:32:31;14.40;99.90
30280;DHT22;17097;50.916;5.344;2023-03-13T06:34:59;14.40;99.90
30280;DHT22;17097;50.916;5.344;2023-03-13T06:37:27;14.30;99.90
30280;DHT22;17097;50.916;5.344;2023-03-13T06:39:53;14.40;99.90
30280;DHT22;17097;50.916;5.344;2023-03-13T06:42:21;14.40;99.90
30280;DHT22;17097;50.916;5.344;2023-03-13T06:44:47;14.50;99.90
30280;DHT22;17097;50.916;5.344;2023-03-13T06:47:13;14.50;99.90
30280;DHT22;17097;50.916;5.344;2023-03-13T06:49:39;14.50;99.90
30280;DHT22;17097;50.916;5.344;2023-03-13T06:52:05;14.60;99.90
30280;DHT22;17097;50.916;5.344;2023-03-13T06:54:31;14.50;99.90
30280;DHT22;17097;50.916;5.344;2023-03-13T06:56:57;14.50;99.90
30280;DHT22;17097;50.916;5.344;2023-03-13T06:59:23;14.60;99.90
30280;DHT22;17097;50.916;5.344;2023-03-13T07:01:49;14.50;99.90
30280;DHT22;17097;50.916;5.344;2023-03-13T07:04:15;14.50;99.90
30280;DHT22;17097;50.916;5.344;2023-03-13T07:06:41;14.50;99.90
30280;DHT22;17097;50.916;5.344;2023-03-13T07:09:10;14.60;99.90
30280;DHT22;17097;50.916;5.344;2023-03-13T07:11:36;14.70;99.90
30280;DHT22;17097;50.916;5.344;2023-03-13T07:14:02;14.70;99.90
30280;DHT22;17097;50.916;5.344;2023-03-13T07:16:28;14.80;99.90
30280;DHT22;17097;50.916;5.344;2023-03-13T07:18:54;14.80;99.90
30280;DHT22;17097;50.916;5.344;2023-03-13T07:21:20;14.70;99.90
30280;DHT22;17097;50.916;5.344;2023-03-13T07:23:49;14.70;99.90
30280;DHT22;17097;50.916;5.344;2023-03-13T07:26:15;14.70;99.90
30280;DHT22;17097;50.916;5.344;2023-03-13T07:28:42;14.60;99.90
30280;DHT22;17097;50.916;5.344;2023-03-13T07:31:11;14.60;99.90
30280;DHT22;17097;50.916;5.344;2023-03-13T07:33:40;14.80;99.90
30280;DHT22;17097;50.916;5.344;2023-03-13T07:36:07;14.80;99.90
30280;DHT22;17097;50.916;5.344;2023-03-13T07:38:33;14.80;99.90
30280;DHT22;17097;50.916;5.344;2023-03-13T07:41:03;14.80;99.90
30280;DHT22;17097;50.916;5.344;2023-03-13T07:43:32;14.80;99.90
30280;DHT22;17097;50.916;5.344;2023-03-13T07:46:02;14.90;99.90
30280;DHT22;17097;50.916;5.344;2023-03-13T07:48:33;14.90;99.90
30280;DHT22;17097;50.916;5.344;2023-03-13T07:50:59;14.90;99.90
30280;DHT22;17097;50.916;5.344;2023-03-13T07:53:26;15.00;99.90
30280;DHT22;17097;50.916;5.344;2023-03-13T07:56:04;15.00;99.90
30280;DHT22;17097;50.916;5.344;2023-03-13T07:58:33;15.20;99.90
30280;DHT22;17097;50.916;5.344;2023-03-13T08:01:01;15.10;99.90
30280;DHT22;17097;50.916;5.344;2023-03-13T08:03:32;15.20;99.90
30280;DHT22;17097;50.916;5.344;2023-03-13T08:06:06;15.20;99.90
30280;DHT22;17097;50.916;5.344;2023-03-13T08:08:32;15.10;99.90
30280;DHT22;17097;50.916;5.344;2023-03-13T08:11:06;15.20;99.90
30280;DHT22;17097;50.916;5.344;2023-03-13T08:13:33;15.10;99.90
30280;DHT22;17097;50.916;5.344;2023-03-13T08:16:04;15.10;99.90
30280;DHT22;17097;50.916;5.344;2023-03-13T08:18:30;15.20;99.90
30280;DHT22;17097;50.916;5.344;2023-03-13T08:21:20;15.30;99.90
30280;DHT22;17097;50.916;5.344;2023-03-13T08:23:46;15.40;99.90
30280;DHT22;17097;50.916;5.344;2023-03-13T08:26:19;15.30;99.90
30280;DHT22;17097;50.916;5.344;2023-03-13T08:28:46;15.40;99.90
30280;DHT22;17097;50.916;5.344;2023-03-13T08:31:17;15.50;99.90
30280;DHT22;17097;50.916;5.344;2023-03-13T08:33:44;15.50;99.90
30280;DHT22;17097;50.916;5.344;2023-03-13T08:36:30;15.60;99.90
30280;DHT22;17097;50.916;5.344;2023-03-13T08:39:02;15.60;99.90
30280;DHT22;17097;50.916;5.344;2023-03-13T08:41:32;15.60;99.90
30280;DHT22;17097;50.916;5.344;2023-03-13T08:44:01;15.60;99.90
30280;DHT22;17097;50.916;5.344;2023-03-13T08:46:33;15.70;99.90
30280;DHT22;17097;50.916;5.344;2023-03-13T08:49:05;15.60;99.90
30280;DHT22;17097;50.916;5.344;2023-03-13T08:51:33;15.50;99.90
30280;DHT22;17097;50.916;5.344;2023-03-13T08:54:02;15.60;99.90
30280;DHT22;17097;50.916;5.344;2023-03-13T08:56:31;15.70;99.90
30280;DHT22;17097;50.916;5.344;2023-03-13T08:58:57;15.70;99.90
30280;DHT22;17097;50.916;5.344;2023-03-13T09:01:29;16.10;99.90
30280;DHT22;17097;50.916;5.344;2023-03-13T09:03:55;16.20;99.90
30280;DHT22;17097;50.916;5.344;2023-03-13T09:06:21;16.40;99.90
30280;DHT22;17097;50.916;5.344;2023-03-13T09:08:47;16.40;99.90
30280;DHT22;17097;50.916;5.344;2023-03-13T09:11:16;16.70;99.90
30280;DHT22;17097;50.916;5.344;2023-03-13T09:13:44;16.80;99.90
30280;DHT22;17097;50.916;5.344;2023-03-13T09:16:13;16.80;99.90
30280;DHT22;17097;50.916;5.344;2023-03-13T09:18:40;16.90;99.90
30280;DHT22;17097;50.916;5.344;2023-03-13T09:21:09;17.00;99.90
30280;DHT22;17097;50.916;5.344;2023-03-13T09:23:37;17.30;99.90
30280;DHT22;17097;50.916;5.344;2023-03-13T09:26:03;17.20;99.90
30280;DHT22;17097;50.916;5.344;2023-03-13T09:28:29;17.20;99.90
30280;DHT22;17097;50.916;5.344;2023-03-13T09:31:08;17.10;99.90
30280;DHT22;17097;50.916;5.344;2023-03-13T09:33:35;17.10;99.90
30280;DHT22;17097;50.916;5.344;2023-03-13T09:36:05;17.50;99.90
30280;DHT22;17097;50.916;5.344;2023-03-13T09:38:31;17.60;99.90
30280;DHT22;17097;50.916;5.344;2023-03-13T10:03:02;17.00;99.90
30280;DHT22;17097;50.916;5.344;2023-03-13T10:05:30;17.10;99.90
30280;DHT22;17097;50.916;5.344;2023-03-13T10:08:26;17.00;99.90
30280;DHT22;17097;50.916;5.344;2023-03-13T10:11:03;17.00;99.90
30280;DHT22;17097;50.916;5.344;2023-03-13T10:18:54;17.10;99.90
30280;DHT22;17097;50.916;5.344;2023-03-13T10:21:22;17.20;99.90
30280;DHT22;17097;50.916;5.344;2023-03-13T10:26:29;17.10;99.90
30280;DHT22;17097;50.916;5.344;2023-03-13T10:29:01;16.90;99.90
30280;DHT22;17097;50.916;5.344;2023-03-13T10:31:32;16.90;99.90
30280;DHT22;17097;50.916;5.344;2023-03-13T10:34:11;16.90;99.90
30280;DHT22;17097;50.916;5.344;2023-03-13T10:36:46;16.80;99.90
30280;DHT22;17097;50.916;5.344;2023-03-13T10:39:23;16.70;99.90
30280;DHT22;17097;50.916;5.344;2023-03-13T10:41:50;16.80;99.90
30280;DHT22;17097;50.916;5.344;2023-03-13T10:44:23;17.30;99.90
30280;DHT22;17097;50.916;5.344;2023-03-13T10:47:01;17.60;99.90
30280;DHT22;17097;50.916;5.344;2023-03-13T10:49:30;17.80;99.90
30280;DHT22;17097;50.916;5.344;2023-03-13T10:52:03;17.70;99.90
30280;DHT22;17097;50.916;5.344;2023-03-13T10:54:34;17.80;99.90
30280;DHT22;17097;50.916;5.344;2023-03-13T10:59:49;18.00;99.90
30280;DHT22;17097;50.916;5.344;2023-03-13T11:04:55;18.00;99.90
30280;DHT22;17097;50.916;5.344;2023-03-13T11:07:35;18.00;99.90
30280;DHT22;17097;50.916;5.344;2023-03-13T11:10:21;18.50;99.90
30280;DHT22;17097;50.916;5.344;2023-03-13T11:12:52;18.60;99.90
30280;DHT22;17097;50.916;5.344;2023-03-13T11:15:36;18.50;99.90
30280;DHT22;17097;50.916;5.344;2023-03-13T11:18:43;18.50;99.90
30280;DHT22;17097;50.916;5.344;2023-03-13T11:21:22;18.50;99.90
30280;DHT22;17097;50.916;5.344;2023-03-13T11:24:06;18.50;99.90
30280;DHT22;17097;50.916;5.344;2023-03-13T11:26:38;18.50;99.90
30280;DHT22;17097;50.916;5.344;2023-03-13T11:29:18;18.30;99.90
30280;DHT22;17097;50.916;5.344;2023-03-13T11:31:50;18.10;99.90
30280;DHT22;17097;50.916;5.344;2023-03-13T11:34:42;18.10;99.90
30280;DHT22;17097;50.916;5.344;2023-03-13T11:37:15;17.90;99.90
30280;DHT22;17097;50.916;5.344;2023-03-13T11:53:36;17.90;99.90
30280;DHT22;17097;50.916;5.344;2023-03-13T11:56:16;18.20;99.90
30280;DHT22;17097;50.916;5.344;2023-03-13T11:59:33;18.30;99.90
30280;DHT22;17097;50.916;5.344;2023-03-13T12:01:57;18.20;99.90
30280;DHT22;17097;50.916;5.344;2023-03-13T12:04:42;18.30;99.90
30280;DHT22;17097;50.916;5.344;2023-03-13T12:08:10;18.60;99.90
30280;DHT22;17097;50.916;5.344;2023-03-13T12:10:15;18.80;99.90
30280;DHT22;17097;50.916;5.344;2023-03-13T12:12:50;18.80;99.90
30280;DHT22;17097;50.916;5.344;2023-03-13T12:15:23;18.80;99.90
30280;DHT22;17097;50.916;5.344;2023-03-13T12:18:29;18.80;99.90
30280;DHT22;17097;50.916;5.344;2023-03-13T12:24:14;18.80;99.90
30280;DHT22;17097;50.916;5.344;2023-03-13T12:32:13;18.30;99.90
30280;DHT22;17097;50.916;5.344;2023-03-13T12:34:54;18.30;99.90
30280;DHT22;17097;50.916;5.344;2023-03-13T12:40:29;18.00;99.90
30280;DHT22;17097;50.916;5.344;2023-03-13T12:43:04;18.00;99.90
30280;DHT22;17097;50.916;5.344;2023-03-13T12:46:32;17.90;99.90
30280;DHT22;17097;50.916;5.344;2023-03-13T12:49:08;18.00;99.90
30280;DHT22;17097;50.916;5.344;2023-03-13T13:00:20;18.00;99.90
30280;DHT22;17097;50.916;5.344;2023-03-13T13:03:00;17.90;99.90
30280;DHT22;17097;50.916;5.344;2023-03-13T13:05:26;17.80;99.90
30280;DHT22;17097;50.916;5.344;2023-03-13T13:07:55;17.90;99.90
30280;DHT22;17097;50.916;5.344;2023-03-13T13:10:24;18.00;99.90
30280;DHT22;17097;50.916;5.344;2023-03-13T13:15:58;17.60;99.90
30280;DHT22;17097;50.916;5.344;2023-03-13T13:18:27;17.60;99.90
30280;DHT22;17097;50.916;5.344;2023-03-13T13:23:38;17.60;99.90
30280;DHT22;17097;50.916;5.344;2023-03-13T13:31:53;18.30;99.90
30280;DHT22;17097;50.916;5.344;2023-03-13T13:36:54;18.20;99.90
30280;DHT22;17097;50.916;5.344;2023-03-13T13:47:41;18.10;99.90
30280;DHT22;17097;50.916;5.344;2023-03-13T13:50:25;18.20;99.90
30280;DHT22;17097;50.916;5.344;2023-03-13T13:52:51;18.20;99.90
30280;DHT22;17097;50.916;5.344;2023-03-13T13:58:11;18.00;99.90
30280;DHT22;17097;50.916;5.344;2023-03-13T14:00:43;18.00;99.90
30280;DHT22;17097;50.916;5.344;2023-03-13T14:03:22;18.00;99.90
30280;DHT22;17097;50.916;5.344;2023-03-13T14:05:53;18.30;99.90
30280;DHT22;17097;50.916;5.344;2023-03-13T14:08:35;18.40;99.90
30280;DHT22;17097;50.916;5.344;2023-03-13T14:14:17;18.10;99.90
30280;DHT22;17097;50.916;5.344;2023-03-13T14:16:46;18.10;99.90
30280;DHT22;17097;50.916;5.344;2023-03-13T14:19:40;18.30;99.90
30280;DHT22;17097;50.916;5.344;2023-03-13T14:22:13;18.50;99.90
30280;DHT22;17097;50.916;5.344;2023-03-13T14:24:39;18.50;99.90
30280;DHT22;17097;50.916;5.344;2023-03-13T14:27:16;18.50;99.90
30280;DHT22;17097;50.916;5.344;2023-03-13T14:29:59;18.30;99.90
30280;DHT22;17097;50.916;5.344;2023-03-13T14:32:25;18.30;99.90
30280;DHT22;17097;50.916;5.344;2023-03-13T14:34:51;18.10;99.90
30280;DHT22;17097;50.916;5.344;2023-03-13T14:37:41;18.00;99.90
30280;DHT22;17097;50.916;5.344;2023-03-13T14:40:29;17.90;99.90
30280;DHT22;17097;50.916;5.344;2023-03-13T14:43:00;18.00;99.90
30280;DHT22;17097;50.916;5.344;2023-03-13T14:45:32;18.20;99.90
30280;DHT22;17097;50.916;5.344;2023-03-13T14:48:48;18.20;99.90
30280;DHT22;17097;50.916;5.344;2023-03-13T14:50:59;18.20;99.90
30280;DHT22;17097;50.916;5.344;2023-03-13T14:53:26;18.20;99.90
30280;DHT22;17097;50.916;5.344;2023-03-13T14:56:19;18.30;99.90
30280;DHT22;17097;50.916;5.344;2023-03-13T14:58:45;18.50;99.90
30280;DHT22;17097;50.916;5.344;2023-03-13T15:01:33;18.80;99.90
30280;DHT22;17097;50.916;5.344;2023-03-13T15:03:59;18.80;99.90
30280;DHT22;17097;50.916;5.344;2023-03-13T15:06:25;18.90;99.90
30280;DHT22;17097;50.916;5.344;2023-03-13T15:09:16;18.90;99.90
30280;DHT22;17097;50.916;5.344;2023-03-13T15:12:03;19.00;99.90
30280;DHT22;17097;50.916;5.344;2023-03-13T15:14:39;19.20;99.90
30280;DHT22;17097;50.916;5.344;2023-03-13T15:19:42;19.00;99.90
30280;DHT22;17097;50.916;5.344;2023-03-13T15:22:14;19.00;99.90
30280;DHT22;17097;50.916;5.344;2023-03-13T15:24:43;19.00;99.90
30280;DHT22;17097;50.916;5.344;2023-03-13T15:27:17;18.90;99.90
30280;DHT22;17097;50.916;5.344;2023-03-13T15:29:44;18.90;99.90
30280;DHT22;17097;50.916;5.344;2023-03-13T15:32:37;18.80;99.90
30280;DHT22;17097;50.916;5.344;2023-03-13T15:35:30;18.50;99.90
30280;DHT22;17097;50.916;5.344;2023-03-13T15:38:02;18.50;99.90
30280;DHT22;17097;50.916;5.344;2023-03-13T15:40:28;18.40;99.90
30280;DHT22;17097;50.916;5.344;2023-03-13T15:42:59;18.50;99.90
30280;DHT22;17097;50.916;5.344;2023-03-13T15:45:27;18.40;99.90
30280;DHT22;17097;50.916;5.344;2023-03-13T15:47:53;18.30;99.90
30280;DHT22;17097;50.916;5.344;2023-03-13T15:50:22;18.30;99.90
30280;DHT22;17097;50.916;5.344;2023-03-13T15:52:54;18.30;99.90
30280;DHT22;17097;50.916;5.344;2023-03-13T15:55:20;18.30;99.90
30280;DHT22;17097;50.916;5.344;2023-03-13T15:57:48;18.00;99.90
30280;DHT22;17097;50.916;5.344;2023-03-13T16:00:18;17.80;99.90
30280;DHT22;17097;50.916;5.344;2023-03-13T16:02:44;17.70;99.90
30280;DHT22;17097;50.916;5.344;2023-03-13T16:05:10;17.70;99.90
30280;DHT22;17097;50.916;5.344;2023-03-13T16:07:36;17.70;99.90
30280;DHT22;17097;50.916;5.344;2023-03-13T16:10:15;17.50;99.90
30280;DHT22;17097;50.916;5.344;2023-03-13T16:12:41;17.50;99.90
30280;DHT22;17097;50.916;5.344;2023-03-13T16:15:10;17.60;99.90
30280;DHT22;17097;50.916;5.344;2023-03-13T16:17:38;17.50;99.90
30280;DHT22;17097;50.916;5.344;2023-03-13T16:20:15;17.60;99.90
30280;DHT22;17097;50.916;5.344;2023-03-13T16:22:45;17.60;99.90
30280;DHT22;17097;50.916;5.344;2023-03-13T16:25:12;17.70;99.90
30280;DHT22;17097;50.916;5.344;2023-03-13T16:27:39;17.60;99.90
30280;DHT22;17097;50.916;5.344;2023-03-13T16:30:15;17.30;99.90
30280;DHT22;17097;50.916;5.344;2023-03-13T16:32:42;17.30;99.90
30280;DHT22;17097;50.916;5.344;2023-03-13T16:35:08;17.30;99.90
30280;DHT22;17097;50.916;5.344;2023-03-13T16:37:34;17.50;99.90
30280;DHT22;17097;50.916;5.344;2023-03-13T16:40:00;17.20;99.90
30280;DHT22;17097;50.916;5.344;2023-03-13T16:42:26;17.10;99.90
30280;DHT22;17097;50.916;5.344;2023-03-13T16:44:52;17.00;99.90
30280;DHT22;17097;50.916;5.344;2023-03-13T16:47:27;17.10;99.90
30280;DHT22;17097;50.916;5.344;2023-03-13T16:49:53;16.90;99.90
30280;DHT22;17097;50.916;5.344;2023-03-13T16:52:22;16.80;99.90
30280;DHT22;17097;50.916;5.344;2023-03-13T16:54:48;16.80;99.90
30280;DHT22;17097;50.916;5.344;2023-03-13T16:57:17;16.70;99.90
30280;DHT22;17097;50.916;5.344;2023-03-13T16:59:44;16.60;99.90
30280;DHT22;17097;50.916;5.344;2023-03-13T17:02:14;16.70;99.90
30280;DHT22;17097;50.916;5.344;2023-03-13T17:04:41;16.70;99.90
30280;DHT22;17097;50.916;5.344;2023-03-13T17:07:25;16.70;99.90
30280;DHT22;17097;50.916;5.344;2023-03-13T17:09:52;16.70;99.90
30280;DHT22;17097;50.916;5.344;2023-03-13T17:12:18;16.70;99.90
30280;DHT22;17097;50.916;5.344;2023-03-13T17:14:44;16.50;99.90
30280;DHT22;17097;50.916;5.344;2023-03-13T17:17:16;16.60;99.90
30280;DHT22;17097;50.916;5.344;2023-03-13T17:19:43;16.60;99.90
30280;DHT22;17097;50.916;5.344;2023-03-13T17:22:11;16.50;99.90
30280;DHT22;17097;50.916;5.344;2023-03-13T17:24:38;16.40;99.90
30280;DHT22;17097;50.916;5.344;2023-03-13T17:27:04;16.30;99.90
30280;DHT22;17097;50.916;5.344;2023-03-13T17:29:30;16.30;99.90